sensor_id;sensor_type;location;lat;lon;timestamp;P1;durP1;ratioP1;P2;durP2;ratioP2
56183;SDS011;42086;53.170;6.980;2022-09-13T00:00:50;29.20;;;19.77;;
56183;SDS011;42086;53.170;6.980;2022-09-13T00:03:17;28.27;;;19.90;;
56183;SDS011;42086;53.170;6.980;2022-09-13T00:05:44;32.30;;;19.92;;
56183;SDS011;42086;53.170;6.980;2022-09-13T00:08:10;33.47;;;22.75;;
56183;SDS011;42086;53.170;6.980;2022-09-13T00:10:37;33.15;;;21.65;;
56183;SDS011;42086;53.170;6.980;2022-09-13T00:13:05;31.42;;;20.90;;
56183;SDS011;42086;53.170;6.980;2022-09-13T00:15:32;31.85;;;21.15;;
56183;SDS011;42086;53.170;6.980;2022-09-13T00:17:59;29.48;;;19.88;;
56183;SDS011;42086;53.170;6.980;2022-09-13T00:20:25;37.05;;;21.83;;
56183;SDS011;42086;53.170;6.980;2022-09-13T00:22:51;37.35;;;22.23;;
56183;SDS011;42086;53.170;6.980;2022-09-13T00:25:17;32.15;;;19.58;;
56183;SDS011;42086;53.170;6.980;2022-09-13T00:27:43;34.75;;;21.85;;
56183;SDS011;42086;53.170;6.980;2022-09-13T00:30:10;38.20;;;23.70;;
56183;SDS011;42086;53.170;6.980;2022-09-13T00:32:36;36.72;;;21.70;;
56183;SDS011;42086;53.170;6.980;2022-09-13T00:35:03;35.05;;;21.40;;
56183;SDS011;42086;53.170;6.980;2022-09-13T00:37:30;34.58;;;22.30;;
56183;SDS011;42086;53.170;6.980;2022-09-13T00:39:58;35.03;;;22.55;;
56183;SDS011;42086;53.170;6.980;2022-09-13T00:42:26;35.47;;;22.17;;
56183;SDS011;42086;53.170;6.980;2022-09-13T00:44:57;33.47;;;21.63;;
56183;SDS011;42086;53.170;6.980;2022-09-13T00:47:35;36.72;;;21.85;;
56183;SDS011;42086;53.170;6.980;2022-09-13T00:53:03;31.58;;;20.73;;
56183;SDS011;42086;53.170;6.980;2022-09-13T00:58:15;34.92;;;22.05;;
56183;SDS011;42086;53.170;6.980;2022-09-13T01:00:46;35.85;;;21.95;;
56183;SDS011;42086;53.170;6.980;2022-09-13T01:03:14;37.75;;;22.67;;
56183;SDS011;42086;53.170;6.980;2022-09-13T01:05:46;36.38;;;23.48;;
56183;SDS011;42086;53.170;6.980;2022-09-13T01:08:16;35.80;;;22.35;;
56183;SDS011;42086;53.170;6.980;2022-09-13T01:10:47;33.58;;;22.50;;
56183;SDS011;42086;53.170;6.980;2022-09-13T01:13:21;37.42;;;23.10;;
56183;SDS011;42086;53.170;6.980;2022-09-13T01:15:49;37.63;;;22.45;;
56183;SDS011;42086;53.170;6.980;2022-09-13T01:18:16;30.25;;;19.85;;
56183;SDS011;42086;53.170;6.980;2022-09-13T01:29:12;33.53;;;21.33;;
56183;SDS011;42086;53.170;6.980;2022-09-13T01:37:09;25.38;;;16.23;;
56183;SDS011;42086;53.170;6.980;2022-09-13T01:48:06;27.42;;;17.27;;
56183;SDS011;42086;53.170;6.980;2022-09-13T01:50:45;28.42;;;16.13;;
56183;SDS011;42086;53.170;6.980;2022-09-13T01:53:35;27.23;;;16.98;;
56183;SDS011;42086;53.170;6.980;2022-09-13T01:56:28;23.65;;;15.38;;
56183;SDS011;42086;53.170;6.980;2022-09-13T01:59:03;22.90;;;14.75;;
56183;SDS011;42086;53.170;6.980;2022-09-13T02:01:37;22.88;;;14.38;;
56183;SDS011;42086;53.170;6.980;2022-09-13T02:04:13;19.65;;;13.10;;
56183;SDS011;42086;53.170;6.980;2022-09-13T02:06:48;20.38;;;12.93;;
56183;SDS011;42086;53.170;6.980;2022-09-13T02:09:23;18.23;;;13.07;;
56183;SDS011;42086;53.170;6.980;2022-09-13T02:11:53;17.45;;;11.60;;
56183;SDS011;42086;53.170;6.980;2022-09-13T02:14:30;16.98;;;11.23;;
56183;SDS011;42086;53.170;6.980;2022-09-13T02:17:06;15.55;;;8.98;;
56183;SDS011;42086;53.170;6.980;2022-09-13T02:22:25;15.75;;;11.05;;
56183;SDS011;42086;53.170;6.980;2022-09-13T02:25:02;14.48;;;9.88;;
56183;SDS011;42086;53.170;6.980;2022-09-13T02:27:34;15.07;;;10.40;;
56183;SDS011;42086;53.170;6.980;2022-09-13T02:30:06;15.88;;;11.00;;
56183;SDS011;42086;53.170;6.980;2022-09-13T02:32:36;18.95;;;11.35;;
56183;SDS011;42086;53.170;6.980;2022-09-13T02:38:09;18.63;;;12.95;;
56183;SDS011;42086;53.170;6.980;2022-09-13T02:40:42;21.83;;;13.95;;
56183;SDS011;42086;53.170;6.980;2022-09-13T02:43:15;19.25;;;13.52;;
56183;SDS011;42086;53.170;6.980;2022-09-13T02:45:56;24.55;;;14.25;;
56183;SDS011;42086;53.170;6.980;2022-09-13T02:48:36;20.75;;;14.02;;
56183;SDS011;42086;53.170;6.980;2022-09-13T02:51:17;21.00;;;13.98;;
56183;SDS011;42086;53.170;6.980;2022-09-13T02:56:33;20.50;;;13.73;;
56183;SDS011;42086;53.170;6.980;2022-09-13T03:01:39;23.00;;;14.90;;
56183;SDS011;42086;53.170;6.980;2022-09-13T03:04:09;23.65;;;14.32;;
56183;SDS011;42086;53.170;6.980;2022-09-13T03:06:36;20.50;;;14.30;;
56183;SDS011;42086;53.170;6.980;2022-09-13T03:09:04;23.40;;;14.75;;
56183;SDS011;42086;53.170;6.980;2022-09-13T03:17:13;25.30;;;16.58;;
56183;SDS011;42086;53.170;6.980;2022-09-13T03:25:15;27.58;;;17.67;;
56183;SDS011;42086;53.170;6.980;2022-09-13T03:31:03;30.65;;;18.48;;
56183;SDS011;42086;53.170;6.980;2022-09-13T03:33:44;31.65;;;17.73;;
56183;SDS011;42086;53.170;6.980;2022-09-13T03:39:02;31.10;;;17.70;;
56183;SDS011;42086;53.170;6.980;2022-09-13T03:41:53;31.90;;;18.27;;
56183;SDS011;42086;53.170;6.980;2022-09-13T03:44:24;34.22;;;18.33;;
56183;SDS011;42086;53.170;6.980;2022-09-13T03:46:54;36.50;;;21.02;;
56183;SDS011;42086;53.170;6.980;2022-09-13T03:49:23;32.67;;;18.73;;
56183;SDS011;42086;53.170;6.980;2022-09-13T03:51:51;41.70;;;20.63;;
56183;SDS011;42086;53.170;6.980;2022-09-13T03:54:25;29.23;;;16.13;;
56183;SDS011;42086;53.170;6.980;2022-09-13T03:59:43;21.55;;;11.82;;
56183;SDS011;42086;53.170;6.980;2022-09-13T04:02:12;17.00;;;10.10;;
56183;SDS011;42086;53.170;6.980;2022-09-13T04:04:39;20.30;;;10.52;;
56183;SDS011;42086;53.170;6.980;2022-09-13T04:07:07;16.42;;;10.60;;
56183;SDS011;42086;53.170;6.980;2022-09-13T04:09:34;14.93;;;9.38;;
56183;SDS011;42086;53.170;6.980;2022-09-13T04:12:00;11.95;;;7.40;;
56183;SDS011;42086;53.170;6.980;2022-09-13T04:14:26;9.10;;;6.32;;
56183;SDS011;42086;53.170;6.980;2022-09-13T04:16:53;11.63;;;6.60;;
56183;SDS011;42086;53.170;6.980;2022-09-13T04:19:19;9.70;;;5.93;;
56183;SDS011;42086;53.170;6.980;2022-09-13T04:21:49;10.30;;;5.90;;
56183;SDS011;42086;53.170;6.980;2022-09-13T04:24:16;7.93;;;4.43;;
56183;SDS011;42086;53.170;6.980;2022-09-13T04:26:43;7.00;;;4.18;;
56183;SDS011;42086;53.170;6.980;2022-09-13T04:29:13;6.22;;;4.68;;
56183;SDS011;42086;53.170;6.980;2022-09-13T04:31:39;5.30;;;3.70;;
56183;SDS011;42086;53.170;6.980;2022-09-13T04:34:05;5.32;;;3.25;;
56183;SDS011;42086;53.170;6.980;2022-09-13T04:36:31;7.30;;;3.58;;
56183;SDS011;42086;53.170;6.980;2022-09-13T04:38:57;5.82;;;3.45;;
56183;SDS011;42086;53.170;6.980;2022-09-13T04:41:24;8.88;;;3.83;;
56183;SDS011;42086;53.170;6.980;2022-09-13T04:43:50;4.78;;;3.55;;
56183;SDS011;42086;53.170;6.980;2022-09-13T04:46:16;6.43;;;3.83;;
56183;SDS011;42086;53.170;6.980;2022-09-13T04:48:46;6.57;;;3.83;;
56183;SDS011;42086;53.170;6.980;2022-09-13T04:51:13;6.70;;;3.67;;
56183;SDS011;42086;53.170;6.980;2022-09-13T04:53:39;6.45;;;3.63;;
56183;SDS011;42086;53.170;6.980;2022-09-13T04:56:05;7.07;;;4.10;;
56183;SDS011;42086;53.170;6.980;2022-09-13T04:58:31;6.35;;;3.65;;
56183;SDS011;42086;53.170;6.980;2022-09-13T05:01:01;7.25;;;4.10;;
56183;SDS011;42086;53.170;6.980;2022-09-13T05:03:31;7.18;;;3.97;;
56183;SDS011;42086;53.170;6.980;2022-09-13T05:06:02;5.05;;;3.83;;
56183;SDS011;42086;53.170;6.980;2022-09-13T05:08:33;8.13;;;4.45;;
56183;SDS011;42086;53.170;6.980;2022-09-13T05:11:00;9.45;;;5.07;;
56183;SDS011;42086;53.170;6.980;2022-09-13T05:13:26;9.65;;;5.95;;
56183;SDS011;42086;53.170;6.980;2022-09-13T05:15:56;11.70;;;6.90;;
56183;SDS011;42086;53.170;6.980;2022-09-13T05:18:26;13.30;;;6.85;;
56183;SDS011;42086;53.170;6.980;2022-09-13T05:20:53;13.75;;;6.97;;
56183;SDS011;42086;53.170;6.980;2022-09-13T05:23:20;10.02;;;7.07;;
56183;SDS011;42086;53.170;6.980;2022-09-13T05:25:56;12.38;;;6.88;;
56183;SDS011;42086;53.170;6.980;2022-09-13T05:28:30;11.48;;;6.68;;
56183;SDS011;42086;53.170;6.980;2022-09-13T05:33:25;8.98;;;5.75;;
56183;SDS011;42086;53.170;6.980;2022-09-13T05:35:53;11.43;;;6.28;;
56183;SDS011;42086;53.170;6.980;2022-09-13T05:38:19;9.50;;;6.25;;
56183;SDS011;42086;53.170;6.980;2022-09-13T05:40:45;10.18;;;6.20;;
56183;SDS011;42086;53.170;6.980;2022-09-13T05:43:12;10.02;;;6.18;;
56183;SDS011;42086;53.170;6.980;2022-09-13T05:45:38;8.75;;;5.97;;
56183;SDS011;42086;53.170;6.980;2022-09-13T05:48:05;10.80;;;5.10;;
56183;SDS011;42086;53.170;6.980;2022-09-13T05:50:31;9.88;;;4.55;;
56183;SDS011;42086;53.170;6.980;2022-09-13T05:53:01;7.65;;;4.72;;
56183;SDS011;42086;53.170;6.980;2022-09-13T05:55:27;7.03;;;4.32;;
56183;SDS011;42086;53.170;6.980;2022-09-13T05:57:53;9.18;;;4.30;;
56183;SDS011;42086;53.170;6.980;2022-09-13T06:00:18;6.97;;;3.40;;
56183;SDS011;42086;53.170;6.980;2022-09-13T06:02:44;6.95;;;3.50;;
56183;SDS011;42086;53.170;6.980;2022-09-13T06:05:10;4.80;;;3.25;;
56183;SDS011;42086;53.170;6.980;2022-09-13T06:07:40;5.25;;;3.17;;
56183;SDS011;42086;53.170;6.980;2022-09-13T06:10:07;5.90;;;3.10;;
56183;SDS011;42086;53.170;6.980;2022-09-13T06:12:33;6.78;;;2.80;;
56183;SDS011;42086;53.170;6.980;2022-09-13T06:14:59;5.88;;;2.72;;
56183;SDS011;42086;53.170;6.980;2022-09-13T06:17:25;8.30;;;2.97;;
56183;SDS011;42086;53.170;6.980;2022-09-13T06:19:51;6.47;;;3.00;;
56183;SDS011;42086;53.170;6.980;2022-09-13T06:22:17;4.95;;;2.53;;
56183;SDS011;42086;53.170;6.980;2022-09-13T06:24:43;11.80;;;2.50;;
56183;SDS011;42086;53.170;6.980;2022-09-13T06:27:08;5.97;;;2.50;;
56183;SDS011;42086;53.170;6.980;2022-09-13T06:29:34;9.10;;;2.58;;
56183;SDS011;42086;53.170;6.980;2022-09-13T06:32:04;7.40;;;2.28;;
56183;SDS011;42086;53.170;6.980;2022-09-13T06:34:30;7.45;;;2.13;;
56183;SDS011;42086;53.170;6.980;2022-09-13T06:36:57;7.32;;;2.10;;
56183;SDS011;42086;53.170;6.980;2022-09-13T06:39:23;7.78;;;2.13;;
56183;SDS011;42086;53.170;6.980;2022-09-13T06:41:48;8.70;;;2.20;;
56183;SDS011;42086;53.170;6.980;2022-09-13T06:44:14;6.90;;;2.17;;
56183;SDS011;42086;53.170;6.980;2022-09-13T06:46:40;8.13;;;2.00;;
56183;SDS011;42086;53.170;6.980;2022-09-13T06:49:06;7.60;;;1.98;;
56183;SDS011;42086;53.170;6.980;2022-09-13T06:51:34;12.68;;;2.63;;
56183;SDS011;42086;53.170;6.980;2022-09-13T06:54:00;6.40;;;1.88;;
56183;SDS011;42086;53.170;6.980;2022-09-13T06:56:28;6.25;;;2.08;;
56183;SDS011;42086;53.170;6.980;2022-09-13T07:01:28;6.40;;;2.00;;
56183;SDS011;42086;53.170;6.980;2022-09-13T07:04:00;9.60;;;1.90;;
56183;SDS011;42086;53.170;6.980;2022-09-13T07:09:20;6.95;;;1.80;;
56183;SDS011;42086;53.170;6.980;2022-09-13T07:11:47;5.97;;;1.83;;
56183;SDS011;42086;53.170;6.980;2022-09-13T07:14:15;8.85;;;2.00;;
56183;SDS011;42086;53.170;6.980;2022-09-13T07:16:43;7.55;;;1.70;;
56183;SDS011;42086;53.170;6.980;2022-09-13T07:19:17;8.38;;;1.90;;
56183;SDS011;42086;53.170;6.980;2022-09-13T07:21:46;4.25;;;1.50;;
56183;SDS011;42086;53.170;6.980;2022-09-13T07:24:14;6.63;;;1.40;;
56183;SDS011;42086;53.170;6.980;2022-09-13T07:26:44;6.15;;;1.70;;
56183;SDS011;42086;53.170;6.980;2022-09-13T07:29:12;6.80;;;1.92;;
56183;SDS011;42086;53.170;6.980;2022-09-13T07:31:42;6.63;;;1.45;;
56183;SDS011;42086;53.170;6.980;2022-09-13T07:34:11;8.60;;;1.77;;
56183;SDS011;42086;53.170;6.980;2022-09-13T07:36:41;5.03;;;1.23;;
56183;SDS011;42086;53.170;6.980;2022-09-13T07:39:07;7.20;;;1.52;;
56183;SDS011;42086;53.170;6.980;2022-09-13T07:41:33;8.77;;;1.70;;
56183;SDS011;42086;53.170;6.980;2022-09-13T07:43:59;5.20;;;1.40;;
56183;SDS011;42086;53.170;6.980;2022-09-13T07:46:27;8.02;;;1.45;;
56183;SDS011;42086;53.170;6.980;2022-09-13T07:48:57;4.90;;;1.30;;
56183;SDS011;42086;53.170;6.980;2022-09-13T07:51:28;8.25;;;1.88;;
56183;SDS011;42086;53.170;6.980;2022-09-13T07:53:56;3.53;;;1.08;;
56183;SDS011;42086;53.170;6.980;2022-09-13T07:56:30;6.45;;;1.35;;
56183;SDS011;42086;53.170;6.980;2022-09-13T07:58:57;5.90;;;1.20;;
56183;SDS011;42086;53.170;6.980;2022-09-13T08:01:25;7.35;;;1.35;;
56183;SDS011;42086;53.170;6.980;2022-09-13T08:03:54;4.13;;;1.10;;
56183;SDS011;42086;53.170;6.980;2022-09-13T08:06:20;6.28;;;1.38;;
56183;SDS011;42086;53.170;6.980;2022-09-13T08:08:47;5.15;;;1.05;;
56183;SDS011;42086;53.170;6.980;2022-09-13T08:11:15;4.88;;;0.90;;
56183;SDS011;42086;53.170;6.980;2022-09-13T08:13:44;5.53;;;1.13;;
56183;SDS011;42086;53.170;6.980;2022-09-13T08:16:10;5.32;;;1.20;;
56183;SDS011;42086;53.170;6.980;2022-09-13T08:19:13;9.40;;;0.88;;
56183;SDS011;42086;53.170;6.980;2022-09-13T08:21:33;8.10;;;1.20;;
56183;SDS011;42086;53.170;6.980;2022-09-13T08:24:00;7.72;;;1.02;;
56183;SDS011;42086;53.170;6.980;2022-09-13T08:26:27;4.35;;;0.90;;
56183;SDS011;42086;53.170;6.980;2022-09-13T08:28:55;5.15;;;1.20;;
56183;SDS011;42086;53.170;6.980;2022-09-13T08:31:22;6.35;;;1.20;;
56183;SDS011;42086;53.170;6.980;2022-09-13T08:33:48;7.13;;;1.00;;
56183;SDS011;42086;53.170;6.980;2022-09-13T08:36:14;8.52;;;1.27;;
56183;SDS011;42086;53.170;6.980;2022-09-13T08:38:47;3.75;;;0.80;;
56183;SDS011;42086;53.170;6.980;2022-09-13T08:41:32;5.00;;;0.90;;
56183;SDS011;42086;53.170;6.980;2022-09-13T08:49:59;4.97;;;1.10;;
56183;SDS011;42086;53.170;6.980;2022-09-13T08:52:38;5.65;;;1.05;;
56183;SDS011;42086;53.170;6.980;2022-09-13T09:00:42;5.82;;;0.88;;
56183;SDS011;42086;53.170;6.980;2022-09-13T09:06:13;3.15;;;0.70;;
56183;SDS011;42086;53.170;6.980;2022-09-13T09:11:33;5.72;;;1.13;;
56183;SDS011;42086;53.170;6.980;2022-09-13T09:14:20;6.07;;;1.00;;
56183;SDS011;42086;53.170;6.980;2022-09-13T09:16:52;3.47;;;0.70;;
56183;SDS011;42086;53.170;6.980;2022-09-13T09:19:33;3.53;;;0.80;;
56183;SDS011;42086;53.170;6.980;2022-09-13T09:22:05;6.90;;;0.95;;
56183;SDS011;42086;53.170;6.980;2022-09-13T09:25:04;3.13;;;0.70;;
56183;SDS011;42086;53.170;6.980;2022-09-13T09:27:30;3.08;;;0.77;;
56183;SDS011;42086;53.170;6.980;2022-09-13T09:29:57;5.40;;;0.90;;
56183;SDS011;42086;53.170;6.980;2022-09-13T09:37:27;2.70;;;0.70;;
56183;SDS011;42086;53.170;6.980;2022-09-13T09:39:57;6.18;;;1.15;;
56183;SDS011;42086;53.170;6.980;2022-09-13T09:42:31;4.32;;;0.70;;
56183;SDS011;42086;53.170;6.980;2022-09-13T09:45:04;6.10;;;0.80;;
56183;SDS011;42086;53.170;6.980;2022-09-13T09:47:44;6.20;;;1.00;;
56183;SDS011;42086;53.170;6.980;2022-09-13T09:50:18;1.98;;;0.77;;
56183;SDS011;42086;53.170;6.980;2022-09-13T10:01:03;5.78;;;0.82;;
56183;SDS011;42086;53.170;6.980;2022-09-13T10:03:31;4.05;;;0.75;;
56183;SDS011;42086;53.170;6.980;2022-09-13T10:08:34;3.60;;;0.80;;
56183;SDS011;42086;53.170;6.980;2022-09-13T10:11:02;4.57;;;0.93;;
56183;SDS011;42086;53.170;6.980;2022-09-13T10:13:29;4.00;;;0.88;;
56183;SDS011;42086;53.170;6.980;2022-09-13T10:15:57;5.75;;;1.08;;
56183;SDS011;42086;53.170;6.980;2022-09-13T10:18:28;3.30;;;0.70;;
56183;SDS011;42086;53.170;6.980;2022-09-13T10:23:27;5.72;;;0.80;;
56183;SDS011;42086;53.170;6.980;2022-09-13T10:26:15;6.45;;;1.13;;
56183;SDS011;42086;53.170;6.980;2022-09-13T10:28:45;4.63;;;1.27;;
56183;SDS011;42086;53.170;6.980;2022-09-13T10:31:27;4.60;;;0.95;;
56183;SDS011;42086;53.170;6.980;2022-09-13T10:33:57;5.03;;;0.80;;
56183;SDS011;42086;53.170;6.980;2022-09-13T10:38:58;5.38;;;1.00;;
56183;SDS011;42086;53.170;6.980;2022-09-13T10:41:33;5.13;;;0.90;;
56183;SDS011;42086;53.170;6.980;2022-09-13T10:44:05;3.33;;;0.80;;
56183;SDS011;42086;53.170;6.980;2022-09-13T10:46:46;3.85;;;0.75;;
56183;SDS011;42086;53.170;6.980;2022-09-13T10:52:00;2.97;;;0.73;;
56183;SDS011;42086;53.170;6.980;2022-09-13T10:54:28;3.50;;;0.85;;
56183;SDS011;42086;53.170;6.980;2022-09-13T10:56:54;5.10;;;1.00;;
56183;SDS011;42086;53.170;6.980;2022-09-13T10:59:24;4.75;;;0.73;;
56183;SDS011;42086;53.170;6.980;2022-09-13T11:07:42;5.03;;;0.90;;
56183;SDS011;42086;53.170;6.980;2022-09-13T11:30:22;3.25;;;0.80;;
56183;SDS011;42086;53.170;6.980;2022-09-13T11:44:17;2.63;;;0.70;;
56183;SDS011;42086;53.170;6.980;2022-09-13T11:55:25;1.75;;;0.50;;
56183;SDS011;42086;53.170;6.980;2022-09-13T11:57:57;5.00;;;0.70;;
56183;SDS011;42086;53.170;6.980;2022-09-13T12:00:37;3.78;;;0.80;;
56183;SDS011;42086;53.170;6.980;2022-09-13T12:06:06;3.88;;;0.90;;
56183;SDS011;42086;53.170;6.980;2022-09-13T12:09:05;3.17;;;1.05;;
56183;SDS011;42086;53.170;6.980;2022-09-13T12:11:38;5.60;;;1.00;;
56183;SDS011;42086;53.170;6.980;2022-09-13T12:14:12;6.30;;;1.00;;
56183;SDS011;42086;53.170;6.980;2022-09-13T12:16:44;2.97;;;0.98;;
56183;SDS011;42086;53.170;6.980;2022-09-13T12:19:18;5.70;;;0.90;;
56183;SDS011;42086;53.170;6.980;2022-09-13T12:22:07;4.90;;;1.00;;
56183;SDS011;42086;53.170;6.980;2022-09-13T12:32:13;6.43;;;0.90;;
56183;SDS011;42086;53.170;6.980;2022-09-13T12:34:45;4.13;;;0.68;;
56183;SDS011;42086;53.170;6.980;2022-09-13T12:42:39;2.25;;;0.90;;
56183;SDS011;42086;53.170;6.980;2022-09-13T12:58:55;5.43;;;0.90;;
56183;SDS011;42086;53.170;6.980;2022-09-13T13:01:39;5.72;;;1.05;;
56183;SDS011;42086;53.170;6.980;2022-09-13T13:06:53;6.82;;;0.95;;
56183;SDS011;42086;53.170;6.980;2022-09-13T13:09:22;3.88;;;0.98;;
56183;SDS011;42086;53.170;6.980;2022-09-13T13:11:48;4.32;;;1.05;;
56183;SDS011;42086;53.170;6.980;2022-09-13T13:23:32;5.35;;;1.23;;
56183;SDS011;42086;53.170;6.980;2022-09-13T13:33:57;4.90;;;0.90;;
56183;SDS011;42086;53.170;6.980;2022-09-13T13:36:27;2.42;;;0.85;;
56183;SDS011;42086;53.170;6.980;2022-09-13T13:38:58;3.22;;;0.80;;
56183;SDS011;42086;53.170;6.980;2022-09-13T13:43:58;3.85;;;0.90;;
56183;SDS011;42086;53.170;6.980;2022-09-13T13:46:26;4.60;;;0.82;;
56183;SDS011;42086;53.170;6.980;2022-09-13T13:49:34;3.60;;;0.77;;
56183;SDS011;42086;53.170;6.980;2022-09-13T13:55:00;3.40;;;0.85;;
56183;SDS011;42086;53.170;6.980;2022-09-13T14:19:31;4.55;;;1.00;;
56183;SDS011;42086;53.170;6.980;2022-09-13T14:22:18;5.00;;;1.10;;
56183;SDS011;42086;53.170;6.980;2022-09-13T14:24:56;3.28;;;0.80;;
56183;SDS011;42086;53.170;6.980;2022-09-13T14:27:36;3.22;;;0.80;;
56183;SDS011;42086;53.170;6.980;2022-09-13T14:30:17;4.80;;;1.02;;
56183;SDS011;42086;53.170;6.980;2022-09-13T14:32:52;5.45;;;1.27;;
56183;SDS011;42086;53.170;6.980;2022-09-13T14:35:30;4.97;;;0.82;;
56183;SDS011;42086;53.170;6.980;2022-09-13T14:40:47;4.03;;;0.80;;
56183;SDS011;42086;53.170;6.980;2022-09-13T14:45:41;1.42;;;0.63;;
56183;SDS011;42086;53.170;6.980;2022-09-13T14:48:15;5.35;;;0.85;;
56183;SDS011;42086;53.170;6.980;2022-09-13T14:51:04;5.90;;;0.93;;
56183;SDS011;42086;53.170;6.980;2022-09-13T14:53:42;6.18;;;0.98;;
56183;SDS011;42086;53.170;6.980;2022-09-13T14:56:16;2.92;;;0.75;;
56183;SDS011;42086;53.170;6.980;2022-09-13T14:58:56;2.75;;;0.70;;
56183;SDS011;42086;53.170;6.980;2022-09-13T15:01:29;3.23;;;0.80;;
56183;SDS011;42086;53.170;6.980;2022-09-13T15:04:00;4.40;;;0.93;;
56183;SDS011;42086;53.170;6.980;2022-09-13T15:06:30;3.78;;;0.90;;
56183;SDS011;42086;53.170;6.980;2022-09-13T15:11:37;3.22;;;0.80;;
56183;SDS011;42086;53.170;6.980;2022-09-13T15:14:29;4.20;;;0.90;;
56183;SDS011;42086;53.170;6.980;2022-09-13T15:24:47;4.28;;;0.80;;
56183;SDS011;42086;53.170;6.980;2022-09-13T15:27:23;5.32;;;0.80;;
56183;SDS011;42086;53.170;6.980;2022-09-13T15:29:50;4.50;;;0.85;;
56183;SDS011;42086;53.170;6.980;2022-09-13T15:32:19;3.47;;;0.95;;
56183;SDS011;42086;53.170;6.980;2022-09-13T15:35:22;2.25;;;0.80;;
56183;SDS011;42086;53.170;6.980;2022-09-13T15:37:59;3.17;;;0.68;;
56183;SDS011;42086;53.170;6.980;2022-09-13T15:40:27;2.55;;;0.70;;
56183;SDS011;42086;53.170;6.980;2022-09-13T15:42:54;4.13;;;0.70;;
56183;SDS011;42086;53.170;6.980;2022-09-13T15:45:21;2.83;;;0.60;;
56183;SDS011;42086;53.170;6.980;2022-09-13T15:47:48;2.88;;;0.65;;
56183;SDS011;42086;53.170;6.980;2022-09-13T15:50:26;3.30;;;0.60;;
56183;SDS011;42086;53.170;6.980;2022-09-13T15:52:55;3.85;;;0.82;;
56183;SDS011;42086;53.170;6.980;2022-09-13T15:55:23;4.47;;;0.60;;
56183;SDS011;42086;53.170;6.980;2022-09-13T15:57:49;5.60;;;0.70;;
56183;SDS011;42086;53.170;6.980;2022-09-13T16:00:16;2.75;;;0.70;;
56183;SDS011;42086;53.170;6.980;2022-09-13T16:02:47;3.53;;;0.65;;
56183;SDS011;42086;53.170;6.980;2022-09-13T16:05:13;5.45;;;0.90;;
56183;SDS011;42086;53.170;6.980;2022-09-13T16:07:40;3.17;;;0.80;;
56183;SDS011;42086;53.170;6.980;2022-09-13T16:10:14;1.88;;;0.55;;
56183;SDS011;42086;53.170;6.980;2022-09-13T16:12:43;3.60;;;0.70;;
56183;SDS011;42086;53.170;6.980;2022-09-13T16:15:09;4.85;;;0.77;;
56183;SDS011;42086;53.170;6.980;2022-09-13T16:17:36;4.78;;;0.80;;
56183;SDS011;42086;53.170;6.980;2022-09-13T16:20:03;3.13;;;0.50;;
56183;SDS011;42086;53.170;6.980;2022-09-13T16:22:31;3.38;;;0.70;;
56183;SDS011;42086;53.170;6.980;2022-09-13T16:24:57;2.83;;;0.60;;
56183;SDS011;42086;53.170;6.980;2022-09-13T16:27:23;7.30;;;1.00;;
56183;SDS011;42086;53.170;6.980;2022-09-13T16:29:51;3.05;;;0.73;;
56183;SDS011;42086;53.170;6.980;2022-09-13T16:32:17;3.53;;;0.60;;
56183;SDS011;42086;53.170;6.980;2022-09-13T16:34:44;5.00;;;2.10;;
56183;SDS011;42086;53.170;6.980;2022-09-13T16:37:12;5.43;;;0.80;;
56183;SDS011;42086;53.170;6.980;2022-09-13T16:39:39;3.72;;;0.70;;
56183;SDS011;42086;53.170;6.980;2022-09-13T16:42:05;3.28;;;0.80;;
56183;SDS011;42086;53.170;6.980;2022-09-13T16:44:31;3.17;;;0.90;;
56183;SDS011;42086;53.170;6.980;2022-09-13T16:46:57;3.25;;;0.68;;
56183;SDS011;42086;53.170;6.980;2022-09-13T16:49:23;5.05;;;0.80;;
56183;SDS011;42086;53.170;6.980;2022-09-13T16:51:50;4.20;;;1.92;;
56183;SDS011;42086;53.170;6.980;2022-09-13T16:54:15;3.17;;;1.23;;
56183;SDS011;42086;53.170;6.980;2022-09-13T16:56:41;3.17;;;0.70;;
56183;SDS011;42086;53.170;6.980;2022-09-13T16:59:07;5.53;;;1.02;;
56183;SDS011;42086;53.170;6.980;2022-09-13T17:01:33;4.28;;;1.10;;
56183;SDS011;42086;53.170;6.980;2022-09-13T17:04:00;6.32;;;0.80;;
56183;SDS011;42086;53.170;6.980;2022-09-13T17:06:26;4.25;;;1.38;;
56183;SDS011;42086;53.170;6.980;2022-09-13T17:08:58;3.72;;;0.90;;
56183;SDS011;42086;53.170;6.980;2022-09-13T17:11:28;2.35;;;1.00;;
56183;SDS011;42086;53.170;6.980;2022-09-13T17:13:56;4.05;;;1.05;;
56183;SDS011;42086;53.170;6.980;2022-09-13T17:16:26;6.55;;;2.55;;
56183;SDS011;42086;53.170;6.980;2022-09-13T17:18:52;6.77;;;1.77;;
56183;SDS011;42086;53.170;6.980;2022-09-13T17:21:21;5.03;;;1.45;;
56183;SDS011;42086;53.170;6.980;2022-09-13T17:23:47;5.68;;;1.92;;
56183;SDS011;42086;53.170;6.980;2022-09-13T17:26:14;9.13;;;4.85;;
56183;SDS011;42086;53.170;6.980;2022-09-13T17:28:40;8.85;;;4.28;;
56183;SDS011;42086;53.170;6.980;2022-09-13T17:31:06;9.38;;;2.00;;
56183;SDS011;42086;53.170;6.980;2022-09-13T17:33:32;4.97;;;1.40;;
56183;SDS011;42086;53.170;6.980;2022-09-13T17:36:08;10.05;;;2.88;;
56183;SDS011;42086;53.170;6.980;2022-09-13T17:38:36;36.88;;;11.20;;
56183;SDS011;42086;53.170;6.980;2022-09-13T17:43:29;5.20;;;1.10;;
56183;SDS011;42086;53.170;6.980;2022-09-13T17:45:55;8.27;;;1.13;;
56183;SDS011;42086;53.170;6.980;2022-09-13T17:48:22;6.70;;;1.30;;
56183;SDS011;42086;53.170;6.980;2022-09-13T17:50:48;20.63;;;4.90;;
56183;SDS011;42086;53.170;6.980;2022-09-13T17:53:14;47.60;;;16.23;;
56183;SDS011;42086;53.170;6.980;2022-09-13T17:55:47;11.40;;;3.10;;
56183;SDS011;42086;53.170;6.980;2022-09-13T17:58:13;8.98;;;2.33;;
56183;SDS011;42086;53.170;6.980;2022-09-13T18:00:40;4.28;;;1.30;;
56183;SDS011;42086;53.170;6.980;2022-09-13T18:03:07;6.28;;;1.50;;
56183;SDS011;42086;53.170;6.980;2022-09-13T18:05:32;4.70;;;1.10;;
56183;SDS011;42086;53.170;6.980;2022-09-13T18:07:58;3.28;;;1.02;;
56183;SDS011;42086;53.170;6.980;2022-09-13T18:10:24;5.03;;;1.10;;
56183;SDS011;42086;53.170;6.980;2022-09-13T18:12:50;4.30;;;0.98;;
56183;SDS011;42086;53.170;6.980;2022-09-13T18:15:17;5.53;;;1.20;;
56183;SDS011;42086;53.170;6.980;2022-09-13T18:17:42;5.40;;;1.50;;
56183;SDS011;42086;53.170;6.980;2022-09-13T18:20:08;5.90;;;1.02;;
56183;SDS011;42086;53.170;6.980;2022-09-13T18:22:34;4.00;;;1.00;;
56183;SDS011;42086;53.170;6.980;2022-09-13T18:25:00;4.57;;;0.90;;
56183;SDS011;42086;53.170;6.980;2022-09-13T18:27:26;4.47;;;1.15;;
56183;SDS011;42086;53.170;6.980;2022-09-13T18:29:52;3.65;;;1.25;;
56183;SDS011;42086;53.170;6.980;2022-09-13T18:32:18;3.00;;;0.80;;
56183;SDS011;42086;53.170;6.980;2022-09-13T18:34:43;3.03;;;0.60;;
56183;SDS011;42086;53.170;6.980;2022-09-13T18:37:09;4.18;;;0.98;;
56183;SDS011;42086;53.170;6.980;2022-09-13T18:39:35;5.43;;;1.30;;
56183;SDS011;42086;53.170;6.980;2022-09-13T18:42:01;6.28;;;1.77;;
56183;SDS011;42086;53.170;6.980;2022-09-13T18:44:28;6.43;;;1.70;;
56183;SDS011;42086;53.170;6.980;2022-09-13T18:46:54;3.42;;;1.58;;
56183;SDS011;42086;53.170;6.980;2022-09-13T18:49:22;4.10;;;2.03;;
56183;SDS011;42086;53.170;6.980;2022-09-13T18:51:48;4.60;;;1.80;;
56183;SDS011;42086;53.170;6.980;2022-09-13T18:54:16;3.10;;;1.50;;
56183;SDS011;42086;53.170;6.980;2022-09-13T18:56:43;7.82;;;2.75;;
56183;SDS011;42086;53.170;6.980;2022-09-13T18:59:10;5.60;;;2.30;;
56183;SDS011;42086;53.170;6.980;2022-09-13T19:01:37;6.32;;;0.82;;
56183;SDS011;42086;53.170;6.980;2022-09-13T19:06:37;3.40;;;0.90;;
56183;SDS011;42086;53.170;6.980;2022-09-13T19:09:06;5.30;;;1.17;;